sensor_id;sensor_type;location;lat;lon;timestamp;pressure;altitude;pressure_sealevel;temperature;humidity
15382;BME280;7789;51.364;12.358;2023-03-21T00:02:23;100471.41;;;11.56;100.00
15382;BME280;7789;51.364;12.358;2023-03-21T00:07:27;100469.59;;;11.57;100.00
15382;BME280;7789;51.364;12.358;2023-03-21T00:12:31;100463.53;;;11.56;100.00
15382;BME280;7789;51.364;12.358;2023-03-21T00:17:38;100478.41;;;11.56;100.00
15382;BME280;7789;51.364;12.358;2023-03-21T00:22:43;100470.66;;;11.54;100.00
15382;BME280;7789;51.364;12.358;2023-03-21T00:27:46;100469.81;;;11.54;99.95
15382;BME280;7789;51.364;12.358;2023-03-21T00:33:08;100464.75;;;11.52;100.00
15382;BME280;7789;51.364;12.358;2023-03-21T00:38:24;100463.31;;;11.48;99.28
15382;BME280;7789;51.364;12.358;2023-03-21T00:43:28;100461.91;;;11.44;98.70
15382;BME280;7789;51.364;12.358;2023-03-21T00:48:31;100464.69;;;11.43;97.38
15382;BME280;7789;51.364;12.358;2023-03-21T00:53:36;100463.97;;;11.41;97.66
15382;BME280;7789;51.364;12.358;2023-03-21T00:58:39;100476.06;;;11.32;96.93
15382;BME280;7789;51.364;12.358;2023-03-21T01:03:43;100461.53;;;11.28;98.47
15382;BME280;7789;51.364;12.358;2023-03-21T01:08:53;100464.94;;;11.19;99.11
15382;BME280;7789;51.364;12.358;2023-03-21T01:13:57;100465.41;;;11.13;100.00
15382;BME280;7789;51.364;12.358;2023-03-21T01:19:22;100473.19;;;11.04;100.00
15382;BME280;7789;51.364;12.358;2023-03-21T01:24:43;100464.19;;;10.97;100.00
15382;BME280;7789;51.364;12.358;2023-03-21T01:29:55;100460.03;;;10.95;100.00
15382;BME280;7789;51.364;12.358;2023-03-21T01:35:00;100463.16;;;10.89;100.00
15382;BME280;7789;51.364;12.358;2023-03-21T01:40:10;100454.03;;;10.83;100.00
15382;BME280;7789;51.364;12.358;2023-03-21T01:50:58;100461.44;;;10.78;100.00
15382;BME280;7789;51.364;12.358;2023-03-21T01:56:07;100459.78;;;10.77;100.00
15382;BME280;7789;51.364;12.358;2023-03-21T02:01:14;100449.44;;;10.76;100.00
15382;BME280;7789;51.364;12.358;2023-03-21T02:06:27;100438.97;;;10.76;100.00
15382;BME280;7789;51.364;12.358;2023-03-21T02:11:34;100443.28;;;10.66;100.00
15382;BME280;7789;51.364;12.358;2023-03-21T02:16:47;100434.97;;;10.61;100.00
15382;BME280;7789;51.364;12.358;2023-03-21T02:22:15;100430.59;;;10.61;100.00
15382;BME280;7789;51.364;12.358;2023-03-21T02:27:24;100430.25;;;10.55;100.00
15382;BME280;7789;51.364;12.358;2023-03-21T02:32:40;100425.03;;;10.55;100.00
15382;BME280;7789;51.364;12.358;2023-03-21T02:37:55;100423.22;;;10.55;100.00
15382;BME280;7789;51.364;12.358;2023-03-21T02:43:06;100429.19;;;10.57;100.00
15382;BME280;7789;51.364;12.358;2023-03-21T02:48:26;100416.22;;;10.56;100.00
15382;BME280;7789;51.364;12.358;2023-03-21T02:53:55;100420.88;;;10.52;100.00
15382;BME280;7789;51.364;12.358;2023-03-21T02:59:22;100417.44;;;10.52;100.00
15382;BME280;7789;51.364;12.358;2023-03-21T03:04:27;100418.25;;;10.52;100.00
15382;BME280;7789;51.364;12.358;2023-03-21T03:09:39;100414.56;;;10.55;100.00
15382;BME280;7789;51.364;12.358;2023-03-21T03:14:52;100416.03;;;10.48;100.00
15382;BME280;7789;51.364;12.358;2023-03-21T03:20:16;100405.44;;;10.49;100.00
15382;BME280;7789;51.364;12.358;2023-03-21T03:25:25;100403.88;;;10.47;100.00
15382;BME280;7789;51.364;12.358;2023-03-21T03:30:44;100407.47;;;10.46;100.00
15382;BME280;7789;51.364;12.358;2023-03-21T03:36:10;100410.06;;;10.46;100.00
15382;BME280;7789;51.364;12.358;2023-03-21T03:41:34;100406.38;;;10.48;100.00
15382;BME280;7789;51.364;12.358;2023-03-21T03:47:02;100409.84;;;10.49;100.00
15382;BME280;7789;51.364;12.358;2023-03-21T03:52:11;100416.03;;;10.48;100.00
15382;BME280;7789;51.364;12.358;2023-03-21T03:57:17;100403.88;;;10.47;100.00
15382;BME280;7789;51.364;12.358;2023-03-21T04:02:21;100397.00;;;10.46;100.00
15382;BME280;7789;51.364;12.358;2023-03-21T04:07:24;100391.91;;;10.44;100.00
15382;BME280;7789;51.364;12.358;2023-03-21T04:18:01;100388.59;;;10.42;100.00
15382;BME280;7789;51.364;12.358;2023-03-21T04:23:06;100386.69;;;10.44;100.00
15382;BME280;7789;51.364;12.358;2023-03-21T04:28:09;100397.00;;;10.46;100.00
15382;BME280;7789;51.364;12.358;2023-03-21T04:33:14;100390.81;;;10.47;100.00
15382;BME280;7789;51.364;12.358;2023-03-21T04:38:17;100389.16;;;10.46;100.00
15382;BME280;7789;51.364;12.358;2023-03-21T04:43:21;100391.31;;;10.52;100.00
15382;BME280;7789;51.364;12.358;2023-03-21T04:48:26;100386.06;;;10.52;100.00
15382;BME280;7789;51.364;12.358;2023-03-21T04:53:29;100386.78;;;10.54;100.00
15382;BME280;7789;51.364;12.358;2023-03-21T04:58:32;100393.66;;;10.55;100.00
15382;BME280;7789;51.364;12.358;2023-03-21T05:03:37;100388.44;;;10.55;100.00
15382;BME280;7789;51.364;12.358;2023-03-21T05:08:41;100387.38;;;10.57;100.00
15382;BME280;7789;51.364;12.358;2023-03-21T05:13:44;100386.63;;;10.55;100.00
15382;BME280;7789;51.364;12.358;2023-03-21T05:18:49;100390.94;;;10.56;100.00
15382;BME280;7789;51.364;12.358;2023-03-21T05:23:53;100389.66;;;10.51;100.00
15382;BME280;7789;51.364;12.358;2023-03-21T05:28:57;100397.34;;;10.52;100.00
15382;BME280;7789;51.364;12.358;2023-03-21T05:34:02;100391.75;;;10.57;100.00
15382;BME280;7789;51.364;12.358;2023-03-21T05:39:05;100394.81;;;10.62;100.00
15382;BME280;7789;51.364;12.358;2023-03-21T05:44:08;100388.50;;;10.64;100.00
15382;BME280;7789;51.364;12.358;2023-03-21T05:49:13;100385.78;;;10.66;100.00
15382;BME280;7789;51.364;12.358;2023-03-21T05:54:19;100382.06;;;10.68;100.00
15382;BME280;7789;51.364;12.358;2023-03-21T05:59:25;100381.81;;;10.71;100.00
15382;BME280;7789;51.364;12.358;2023-03-21T06:04:30;100385.00;;;10.75;100.00
15382;BME280;7789;51.364;12.358;2023-03-21T06:09:35;100381.19;;;10.79;100.00
15382;BME280;7789;51.364;12.358;2023-03-21T06:14:38;100373.09;;;10.82;100.00
15382;BME280;7789;51.364;12.358;2023-03-21T06:19:43;100373.63;;;10.96;100.00
15382;BME280;7789;51.364;12.358;2023-03-21T06:24:47;100385.84;;;11.16;100.00
15382;BME280;7789;51.364;12.358;2023-03-21T06:29:50;100387.31;;;11.29;100.00
15382;BME280;7789;51.364;12.358;2023-03-21T06:34:55;100386.66;;;11.37;100.00
15382;BME280;7789;51.364;12.358;2023-03-21T06:39:59;100394.00;;;11.43;100.00
15382;BME280;7789;51.364;12.358;2023-03-21T06:45:06;100404.22;;;11.46;100.00
15382;BME280;7789;51.364;12.358;2023-03-21T06:50:11;100407.13;;;11.52;99.08
15382;BME280;7789;51.364;12.358;2023-03-21T06:55:15;100405.09;;;11.56;99.03
15382;BME280;7789;51.364;12.358;2023-03-21T07:00:27;100403.63;;;11.63;98.19
15382;BME280;7789;51.364;12.358;2023-03-21T07:05:34;100404.91;;;11.68;96.45
15382;BME280;7789;51.364;12.358;2023-03-21T07:10:42;100391.16;;;11.76;95.93
15382;BME280;7789;51.364;12.358;2023-03-21T07:15:46;100401.78;;;11.84;95.89
15382;BME280;7789;51.364;12.358;2023-03-21T07:20:51;100396.84;;;11.90;94.93
15382;BME280;7789;51.364;12.358;2023-03-21T07:25:54;100385.56;;;11.99;94.98
15382;BME280;7789;51.364;12.358;2023-03-21T07:30:59;100376.03;;;11.98;94.10
15382;BME280;7789;51.364;12.358;2023-03-21T07:36:08;100382.09;;;12.95;91.49
15382;BME280;7789;51.364;12.358;2023-03-21T07:41:13;100375.56;;;13.54;89.60
15382;BME280;7789;51.364;12.358;2023-03-21T07:46:16;100383.19;;;13.48;89.72
15382;BME280;7789;51.364;12.358;2023-03-21T07:51:22;100376.91;;;13.68;88.44
15382;BME280;7789;51.364;12.358;2023-03-21T07:56:25;100384.00;;;13.85;87.07
15382;BME280;7789;51.364;12.358;2023-03-21T08:01:28;100374.97;;;13.97;86.20
15382;BME280;7789;51.364;12.358;2023-03-21T08:06:34;100383.63;;;14.34;84.57
15382;BME280;7789;51.364;12.358;2023-03-21T08:11:39;100384.56;;;14.60;81.48
15382;BME280;7789;51.364;12.358;2023-03-21T08:16:42;100383.47;;;14.53;81.13
15382;BME280;7789;51.364;12.358;2023-03-21T08:21:47;100377.56;;;14.68;80.20
15382;BME280;7789;51.364;12.358;2023-03-21T08:26:51;100388.72;;;14.87;79.33
15382;BME280;7789;51.364;12.358;2023-03-21T08:31:55;100391.97;;;14.82;79.01
15382;BME280;7789;51.364;12.358;2023-03-21T08:37:00;100383.63;;;14.69;77.49
15382;BME280;7789;51.364;12.358;2023-03-21T08:42:05;100393.41;;;14.59;77.86
15382;BME280;7789;51.364;12.358;2023-03-21T08:47:08;100389.88;;;14.68;76.50
15382;BME280;7789;51.364;12.358;2023-03-21T08:52:13;100390.81;;;15.01;75.71
15382;BME280;7789;51.364;12.358;2023-03-21T08:57:16;100378.72;;;14.91;74.61
15382;BME280;7789;51.364;12.358;2023-03-21T09:02:19;100383.34;;;15.14;74.47
15382;BME280;7789;51.364;12.358;2023-03-21T09:07:24;100380.63;;;15.41;73.85
15382;BME280;7789;51.364;12.358;2023-03-21T09:12:28;100377.47;;;15.38;73.39
15382;BME280;7789;51.364;12.358;2023-03-21T09:17:32;100375.13;;;15.35;73.51
15382;BME280;7789;51.364;12.358;2023-03-21T09:22:36;100377.56;;;15.54;72.94
15382;BME280;7789;51.364;12.358;2023-03-21T09:27:43;100381.13;;;15.78;73.03
15382;BME280;7789;51.364;12.358;2023-03-21T09:32:47;100369.78;;;15.86;71.92
15382;BME280;7789;51.364;12.358;2023-03-21T09:37:52;100368.38;;;16.07;71.02
15382;BME280;7789;51.364;12.358;2023-03-21T09:43:04;100368.38;;;16.07;71.05
15382;BME280;7789;51.364;12.358;2023-03-21T09:48:16;100362.81;;;16.18;70.25
15382;BME280;7789;51.364;12.358;2023-03-21T09:53:34;100360.13;;;16.02;70.16
15382;BME280;7789;51.364;12.358;2023-03-21T09:58:40;100355.88;;;16.17;70.13
15382;BME280;7789;51.364;12.358;2023-03-21T10:03:47;100344.13;;;16.77;69.06
15382;BME280;7789;51.364;12.358;2023-03-21T10:08:54;100335.34;;;17.00;66.98
15382;BME280;7789;51.364;12.358;2023-03-21T10:14:02;100326.88;;;17.21;66.96
15382;BME280;7789;51.364;12.358;2023-03-21T10:19:10;100327.78;;;17.60;66.64
15382;BME280;7789;51.364;12.358;2023-03-21T10:24:18;100330.06;;;16.92;65.12
15382;BME280;7789;51.364;12.358;2023-03-21T10:29:26;100311.91;;;16.97;65.85
15382;BME280;7789;51.364;12.358;2023-03-21T10:34:36;100310.72;;;17.08;66.71
15382;BME280;7789;51.364;12.358;2023-03-21T10:39:45;100311.38;;;17.34;66.66
15382;BME280;7789;51.364;12.358;2023-03-21T10:44:51;100311.47;;;17.48;64.54
15382;BME280;7789;51.364;12.358;2023-03-21T10:50:00;100301.97;;;17.70;63.63
15382;BME280;7789;51.364;12.358;2023-03-21T10:55:19;100304.25;;;17.81;62.97
15382;BME280;7789;51.364;12.358;2023-03-21T11:00:26;100298.81;;;17.74;62.94
15382;BME280;7789;51.364;12.358;2023-03-21T11:05:36;100296.38;;;17.95;63.43
15382;BME280;7789;51.364;12.358;2023-03-21T11:10:52;100282.09;;;18.27;62.66
15382;BME280;7789;51.364;12.358;2023-03-21T11:16:04;100293.03;;;18.32;61.08
15382;BME280;7789;51.364;12.358;2023-03-21T11:21:09;100279.81;;;18.24;62.18
15382;BME280;7789;51.364;12.358;2023-03-21T11:26:18;100274.44;;;18.40;61.47
15382;BME280;7789;51.364;12.358;2023-03-21T11:31:37;100273.66;;;18.54;60.75
15382;BME280;7789;51.364;12.358;2023-03-21T11:36:40;100261.44;;;18.53;60.76
15382;BME280;7789;51.364;12.358;2023-03-21T11:41:47;100254.41;;;18.60;61.01
15382;BME280;7789;51.364;12.358;2023-03-21T11:46:54;100250.59;;;18.62;59.69
15382;BME280;7789;51.364;12.358;2023-03-21T11:52:04;100255.50;;;18.51;59.25
15382;BME280;7789;51.364;12.358;2023-03-21T11:57:23;100235.72;;;18.75;58.61
15382;BME280;7789;51.364;12.358;2023-03-21T12:08:12;100218.56;;;19.00;59.12
15382;BME280;7789;51.364;12.358;2023-03-21T12:13:42;100224.50;;;19.02;58.12
15382;BME280;7789;51.364;12.358;2023-03-21T12:19:00;100204.75;;;19.05;57.87
15382;BME280;7789;51.364;12.358;2023-03-21T12:24:14;100209.56;;;19.24;58.84
15382;BME280;7789;51.364;12.358;2023-03-21T12:29:43;100198.38;;;19.43;58.38
15382;BME280;7789;51.364;12.358;2023-03-21T12:35:24;100195.25;;;19.39;57.00
15382;BME280;7789;51.364;12.358;2023-03-21T12:40:42;100191.50;;;19.34;58.14
15382;BME280;7789;51.364;12.358;2023-03-21T12:45:51;100192.13;;;19.36;57.28
15382;BME280;7789;51.364;12.358;2023-03-21T12:50:58;100179.50;;;19.38;58.36
15382;BME280;7789;51.364;12.358;2023-03-21T12:56:08;100177.50;;;19.40;57.62
15382;BME280;7789;51.364;12.358;2023-03-21T13:01:14;100161.31;;;19.49;58.07
15382;BME280;7789;51.364;12.358;2023-03-21T13:06:23;100159.63;;;19.48;57.54
15382;BME280;7789;51.364;12.358;2023-03-21T13:11:28;100144.25;;;19.58;57.38
15382;BME280;7789;51.364;12.358;2023-03-21T13:16:35;100141.69;;;19.65;57.26
15382;BME280;7789;51.364;12.358;2023-03-21T13:21:47;100139.78;;;19.59;56.90
15382;BME280;7789;51.364;12.358;2023-03-21T13:26:58;100132.31;;;19.69;57.06
15382;BME280;7789;51.364;12.358;2023-03-21T13:32:09;100115.47;;;19.55;57.14
15382;BME280;7789;51.364;12.358;2023-03-21T13:37:18;100115.84;;;19.52;57.63
15382;BME280;7789;51.364;12.358;2023-03-21T13:42:29;100120.88;;;19.47;56.99
15382;BME280;7789;51.364;12.358;2023-03-21T13:47:39;100119.44;;;19.45;56.95
15382;BME280;7789;51.364;12.358;2023-03-21T13:53:23;100110.41;;;19.60;56.28
15382;BME280;7789;51.364;12.358;2023-03-21T13:58:35;100095.50;;;19.59;56.70
15382;BME280;7789;51.364;12.358;2023-03-21T14:03:41;100099.47;;;19.49;57.52
15382;BME280;7789;51.364;12.358;2023-03-21T14:08:48;100095.88;;;19.35;56.86
15382;BME280;7789;51.364;12.358;2023-03-21T14:13:52;100090.97;;;19.18;57.19
15382;BME280;7789;51.364;12.358;2023-03-21T14:19:02;100087.97;;;19.06;57.31
15382;BME280;7789;51.364;12.358;2023-03-21T14:24:11;100079.63;;;19.09;57.79
15382;BME280;7789;51.364;12.358;2023-03-21T14:29:19;100077.53;;;19.05;57.97
15382;BME280;7789;51.364;12.358;2023-03-21T14:34:31;100068.53;;;18.99;58.87
15382;BME280;7789;51.364;12.358;2023-03-21T14:39:35;100068.25;;;18.94;58.88
15382;BME280;7789;51.364;12.358;2023-03-21T14:44:39;100057.56;;;18.88;59.71
15382;BME280;7789;51.364;12.358;2023-03-21T14:50:01;100061.50;;;18.77;59.08
15382;BME280;7789;51.364;12.358;2023-03-21T14:55:13;100047.56;;;18.83;59.78
15382;BME280;7789;51.364;12.358;2023-03-21T15:00:23;100040.63;;;18.82;59.48
15382;BME280;7789;51.364;12.358;2023-03-21T15:05:30;100038.00;;;18.89;59.84
15382;BME280;7789;51.364;12.358;2023-03-21T15:10:34;100035.31;;;18.82;59.80
15382;BME280;7789;51.364;12.358;2023-03-21T15:15:39;100036.88;;;18.77;59.63
15382;BME280;7789;51.364;12.358;2023-03-21T15:20:47;100025.81;;;18.73;60.12
15382;BME280;7789;51.364;12.358;2023-03-21T15:25:52;100015.50;;;18.64;59.69
15382;BME280;7789;51.364;12.358;2023-03-21T15:30:55;100010.78;;;18.60;59.66
15382;BME280;7789;51.364;12.358;2023-03-21T15:36:07;100012.97;;;18.56;59.95
15382;BME280;7789;51.364;12.358;2023-03-21T15:41:26;100006.13;;;18.47;59.65
15382;BME280;7789;51.364;12.358;2023-03-21T15:46:39;100004.31;;;18.48;60.17
15382;BME280;7789;51.364;12.358;2023-03-21T15:51:48;100004.88;;;18.43;59.66
15382;BME280;7789;51.364;12.358;2023-03-21T15:56:54;99997.94;;;18.42;60.25
15382;BME280;7789;51.364;12.358;2023-03-21T16:02:02;99995.38;;;18.34;59.99
15382;BME280;7789;51.364;12.358;2023-03-21T16:07:14;100008.03;;;18.24;60.07
15382;BME280;7789;51.364;12.358;2023-03-21T16:12:18;100010.88;;;18.08;60.13
15382;BME280;7789;51.364;12.358;2023-03-21T16:17:26;100007.75;;;17.90;61.03
15382;BME280;7789;51.364;12.358;2023-03-21T16:22:32;100011.09;;;17.84;61.49
15382;BME280;7789;51.364;12.358;2023-03-21T16:27:36;100008.34;;;17.78;61.91
15382;BME280;7789;51.364;12.358;2023-03-21T16:32:40;100014.38;;;17.72;62.30
15382;BME280;7789;51.364;12.358;2023-03-21T16:37:45;100007.59;;;17.69;62.78
15382;BME280;7789;51.364;12.358;2023-03-21T16:42:49;100013.91;;;17.68;63.08
15382;BME280;7789;51.364;12.358;2023-03-21T16:47:52;100006.22;;;17.59;64.29
15382;BME280;7789;51.364;12.358;2023-03-21T16:52:57;100005.47;;;17.50;64.16
15382;BME280;7789;51.364;12.358;2023-03-21T16:58:01;100006.03;;;17.46;64.22
15382;BME280;7789;51.364;12.358;2023-03-21T17:03:11;100006.84;;;17.46;64.56
15382;BME280;7789;51.364;12.358;2023-03-21T17:08:18;100007.34;;;17.42;64.80
15382;BME280;7789;51.364;12.358;2023-03-21T17:13:22;100010.72;;;17.36;65.41
15382;BME280;7789;51.364;12.358;2023-03-21T17:18:26;100010.41;;;17.31;65.43
15382;BME280;7789;51.364;12.358;2023-03-21T17:23:31;100019.03;;;17.25;65.34
15382;BME280;7789;51.364;12.358;2023-03-21T17:28:35;100030.16;;;17.20;66.06
15382;BME280;7789;51.364;12.358;2023-03-21T17:33:38;100025.91;;;17.11;65.98
15382;BME280;7789;51.364;12.358;2023-03-21T17:38:44;100030.06;;;17.06;66.00
15382;BME280;7789;51.364;12.358;2023-03-21T17:43:51;100037.72;;;16.93;66.41
15382;BME280;7789;51.364;12.358;2023-03-21T17:48:56;100041.41;;;16.84;66.74
15382;BME280;7789;51.364;12.358;2023-03-21T17:54:01;100055.00;;;16.73;67.84
15382;BME280;7789;51.364;12.358;2023-03-21T17:59:09;100063.47;;;16.61;67.92
15382;BME280;7789;51.364;12.358;2023-03-21T18:04:13;100059.22;;;16.52;68.92
15382;BME280;7789;51.364;12.358;2023-03-21T18:09:18;100071.28;;;16.38;70.13
15382;BME280;7789;51.364;12.358;2023-03-21T18:14:23;100070.00;;;16.26;70.68
15382;BME280;7789;51.364;12.358;2023-03-21T18:19:30;100079.06;;;16.16;71.30
15382;BME280;7789;51.364;12.358;2023-03-21T18:24:36;100083.69;;;15.98;73.38
15382;BME280;7789;51.364;12.358;2023-03-21T18:29:40;100087.03;;;15.84;75.19
15382;BME280;7789;51.364;12.358;2023-03-21T18:35:03;100083.88;;;15.72;77.11
15382;BME280;7789;51.364;12.358;2023-03-21T18:40:09;100085.53;;;15.57;79.47
15382;BME280;7789;51.364;12.358;2023-03-21T18:45:13;100085.22;;;15.44;80.35
15382;BME280;7789;51.364;12.358;2023-03-21T18:50:19;100080.09;;;15.35;82.62
15382;BME280;7789;51.364;12.358;2023-03-21T18:55:23;100081.03;;;15.26;84.22
15382;BME280;7789;51.364;12.358;2023-03-21T19:00:46;100081.69;;;15.20;86.09
15382;BME280;7789;51.364;12.358;2023-03-21T19:05:51;100081.31;;;15.07;86.81
15382;BME280;7789;51.364;12.358;2023-03-21T19:10:56;100086.56;;;14.99;88.99
15382;BME280;7789;51.364;12.358;2023-03-21T19:16:06;100081.13;;;14.92;90.09
15382;BME280;7789;51.364;12.358;2023-03-21T19:21:12;100088.97;;;14.84;90.51
15382;BME280;7789;51.364;12.358;2023-03-21T19:26:16;100080.75;;;14.80;91.73
15382;BME280;7789;51.364;12.358;2023-03-21T19:31:20;100078.56;;;14.67;92.51
15382;BME280;7789;51.364;12.358;2023-03-21T19:36:25;100087.38;;;14.58;93.18
15382;BME280;7789;51.364;12.358;2023-03-21T19:41:30;100090.78;;;14.51;94.58
15382;BME280;7789;51.364;12.358;2023-03-21T19:46:35;100086.00;;;14.46;95.61
15382;BME280;7789;51.364;12.358;2023-03-21T19:51:38;100084.47;;;14.36;96.49
15382;BME280;7789;51.364;12.358;2023-03-21T19:56:43;100087.59;;;14.31;98.47
15382;BME280;7789;51.364;12.358;2023-03-21T20:02:09;100079.81;;;14.22;98.67
15382;BME280;7789;51.364;12.358;2023-03-21T20:07:57;100082.97;;;14.08;99.66
15382;BME280;7789;51.364;12.358;2023-03-21T20:13:18;100082.75;;;14.01;100.00
15382;BME280;7789;51.364;12.358;2023-03-21T20:18:22;100087.81;;;13.95;100.00
15382;BME280;7789;51.364;12.358;2023-03-21T20:23:26;100089.25;;;13.89;100.00
15382;BME280;7789;51.364;12.358;2023-03-21T20:28:31;100089.69;;;13.85;100.00
15382;BME280;7789;51.364;12.358;2023-03-21T20:33:34;100084.38;;;13.77;100.00
15382;BME280;7789;51.364;12.358;2023-03-21T20:38:38;100086.34;;;13.75;100.00
15382;BME280;7789;51.364;12.358;2023-03-21T20:43:43;100083.81;;;13.65;100.00
15382;BME280;7789;51.364;12.358;2023-03-21T20:49:06;100088.16;;;13.57;100.00
15382;BME280;7789;51.364;12.358;2023-03-21T20:54:09;100082.00;;;13.48;100.00
15382;BME280;7789;51.364;12.358;2023-03-21T20:59:14;100073.75;;;13.43;100.00
15382;BME280;7789;51.364;12.358;2023-03-21T21:04:26;100082.38;;;13.36;100.00
15382;BME280;7789;51.364;12.358;2023-03-21T21:09:50;100093.34;;;13.31;100.00
15382;BME280;7789;51.364;12.358;2023-03-21T21:14:56;100090.84;;;13.30;100.00
15382;BME280;7789;51.364;12.358;2023-03-21T21:20:00;100095.44;;;13.28;100.00
15382;BME280;7789;51.364;12.358;2023-03-21T21:25:11;100094.75;;;13.26;100.00
15382;BME280;7789;51.364;12.358;2023-03-21T21:30:15;100084.69;;;13.21;100.00
15382;BME280;7789;51.364;12.358;2023-03-21T21:35:19;100075.47;;;13.17;100.00
15382;BME280;7789;51.364;12.358;2023-03-21T21:40:23;100070.13;;;13.09;100.00
15382;BME280;7789;51.364;12.358;2023-03-21T21:45:28;100066.34;;;13.04;100.00
15382;BME280;7789;51.364;12.358;2023-03-21T21:50:31;100061.34;;;13.01;100.00
15382;BME280;7789;51.364;12.358;2023-03-21T21:55:35;100056.56;;;12.97;100.00
15382;BME280;7789;51.364;12.358;2023-03-21T22:00:40;100053.28;;;12.95;100.00
15382;BME280;7789;51.364;12.358;2023-03-21T22:05:43;100053.09;;;12.96;100.00
15382;BME280;7789;51.364;12.358;2023-03-21T22:10:46;100048.72;;;12.87;100.00
15382;BME280;7789;51.364;12.358;2023-03-21T22:15:51;100051.13;;;12.81;100.00
15382;BME280;7789;51.364;12.358;2023-03-21T22:20:54;100038.72;;;12.73;100.00
15382;BME280;7789;51.364;12.358;2023-03-21T22:26:01;100044.13;;;12.72;100.00
15382;BME280;7789;51.364;12.358;2023-03-21T22:31:10;100044.94;;;12.72;100.00
15382;BME280;7789;51.364;12.358;2023-03-21T22:36:13;100047.72;;;12.71;100.00
15382;BME280;7789;51.364;12.358;2023-03-21T22:41:20;100050.94;;;12.65;100.00
15382;BME280;7789;51.364;12.358;2023-03-21T22:46:25;100046.78;;;12.62;100.00
15382;BME280;7789;51.364;12.358;2023-03-21T22:51:28;100038.38;;;12.59;100.00
15382;BME280;7789;51.364;12.358;2023-03-21T22:56:31;100044.66;;;12.48;100.00
15382;BME280;7789;51.364;12.358;2023-03-21T23:01:36;100044.84;;;12.37;100.00
15382;BME280;7789;51.364;12.358;2023-03-21T23:06:41;100048.19;;;12.30;100.00
15382;BME280;7789;51.364;12.358;2023-03-21T23:11:46;100039.41;;;12.21;100.00
15382;BME280;7789;51.364;12.358;2023-03-21T23:16:52;100026.34;;;12.12;100.00
15382;BME280;7789;51.364;12.358;2023-03-21T23:21:56;100020.97;;;12.04;100.00
15382;BME280;7789;51.364;12.358;2023-03-21T23:27:00;100026.63;;;11.99;100.00
15382;BME280;7789;51.364;12.358;2023-03-21T23:32:04;100036.44;;;11.97;100.00
15382;BME280;7789;51.364;12.358;2023-03-21T23:37:08;100032.44;;;11.93;100.00
15382;BME280;7789;51.364;12.358;2023-03-21T23:42:11;100035.66;;;11.87;100.00
15382;BME280;7789;51.364;12.358;2023-03-21T23:47:15;100042.16;;;11.83;100.00
15382;BME280;7789;51.364;12.358;2023-03-21T23:52:18;100037.59;;;11.85;100.00
15382;BME280;7789;51.364;12.358;2023-03-21T23:57:22;100036.16;;;11.91;100.00
